sensor_id;sensor_type;location;lat;lon;timestamp;pressure;altitude;pressure_sealevel;temperature;humidity
76086;BME280;64791;0.000;0.000;2023-05-27T00:01:53;93898.13;;;11.25;87.31
76086;BME280;64791;0.000;0.000;2023-05-27T00:04:19;93896.09;;;11.26;87.68
76086;BME280;64791;0.000;0.000;2023-05-27T00:06:44;93884.50;;;11.27;88.23
76086;BME280;64791;0.000;0.000;2023-05-27T00:09:10;93876.94;;;11.28;87.62
76086;BME280;64791;0.000;0.000;2023-05-27T00:11:35;93877.66;;;11.28;87.67
76086;BME280;64791;0.000;0.000;2023-05-27T00:14:01;93876.41;;;11.29;87.69
76086;BME280;64791;0.000;0.000;2023-05-27T00:16:26;93884.13;;;11.31;87.54
76086;BME280;64791;0.000;0.000;2023-05-27T00:18:53;93889.47;;;11.37;87.45
76086;BME280;64791;0.000;0.000;2023-05-27T00:21:18;93890.56;;;11.33;87.20
76086;BME280;64791;0.000;0.000;2023-05-27T00:23:44;93878.25;;;11.35;87.46
76086;BME280;64791;0.000;0.000;2023-05-27T00:26:10;93873.25;;;11.33;87.43
76086;BME280;64791;0.000;0.000;2023-05-27T00:28:37;93869.38;;;11.28;87.36
76086;BME280;64791;0.000;0.000;2023-05-27T00:31:02;93860.91;;;11.26;87.87
76086;BME280;64791;0.000;0.000;2023-05-27T00:33:28;93851.75;;;11.24;87.41
76086;BME280;64791;0.000;0.000;2023-05-27T00:35:53;93849.69;;;11.24;87.28
76086;BME280;64791;0.000;0.000;2023-05-27T00:38:19;93851.75;;;11.24;87.51
76086;BME280;64791;0.000;0.000;2023-05-27T00:40:45;93853.19;;;11.25;87.53
76086;BME280;64791;0.000;0.000;2023-05-27T00:43:11;93844.00;;;11.22;87.23
76086;BME280;64791;0.000;0.000;2023-05-27T00:45:36;93853.03;;;11.23;87.28
76086;BME280;64791;0.000;0.000;2023-05-27T00:48:02;93840.13;;;11.18;87.51
76086;BME280;64791;0.000;0.000;2023-05-27T00:50:28;93836.66;;;11.17;87.49
76086;BME280;64791;0.000;0.000;2023-05-27T00:52:54;93839.78;;;11.14;87.71
76086;BME280;64791;0.000;0.000;2023-05-27T00:55:25;93832.06;;;11.12;87.02
76086;BME280;64791;0.000;0.000;2023-05-27T00:57:51;93828.72;;;11.14;87.12
76086;BME280;64791;0.000;0.000;2023-05-27T01:00:23;93830.75;;;11.13;87.81
76086;BME280;64791;0.000;0.000;2023-05-27T01:02:49;93823.03;;;11.12;87.66
76086;BME280;64791;0.000;0.000;2023-05-27T01:05:15;93824.34;;;11.11;87.75
76086;BME280;64791;0.000;0.000;2023-05-27T01:10:28;93819.53;;;11.11;87.79
76086;BME280;64791;0.000;0.000;2023-05-27T01:15:35;93818.81;;;11.11;87.85
76086;BME280;64791;0.000;0.000;2023-05-27T01:18:02;93826.53;;;11.12;87.34
76086;BME280;64791;0.000;0.000;2023-05-27T01:20:31;93823.59;;;11.10;87.85
76086;BME280;64791;0.000;0.000;2023-05-27T01:22:58;93821.91;;;11.07;87.73
76086;BME280;64791;0.000;0.000;2023-05-27T01:25:24;93817.16;;;11.08;87.77
76086;BME280;64791;0.000;0.000;2023-05-27T01:27:50;93809.97;;;11.05;87.51
76086;BME280;64791;0.000;0.000;2023-05-27T01:30:18;93814.59;;;11.02;87.55
76086;BME280;64791;0.000;0.000;2023-05-27T01:32:46;93801.31;;;11.01;87.62
76086;BME280;64791;0.000;0.000;2023-05-27T01:35:17;93807.41;;;10.99;87.25
76086;BME280;64791;0.000;0.000;2023-05-27T01:37:45;93800.97;;;10.97;87.81
76086;BME280;64791;0.000;0.000;2023-05-27T01:40:11;93800.78;;;10.95;87.49
76086;BME280;64791;0.000;0.000;2023-05-27T01:42:38;93798.41;;;10.91;87.01
76086;BME280;64791;0.000;0.000;2023-05-27T01:45:05;93800.41;;;10.91;87.49
76086;BME280;64791;0.000;0.000;2023-05-27T01:47:31;93789.00;;;10.87;87.85
76086;BME280;64791;0.000;0.000;2023-05-27T01:49:57;93796.91;;;10.83;87.73
76086;BME280;64791;0.000;0.000;2023-05-27T01:52:23;93797.28;;;10.79;87.24
76086;BME280;64791;0.000;0.000;2023-05-27T01:54:50;93804.66;;;10.77;87.64
76086;BME280;64791;0.000;0.000;2023-05-27T01:57:16;93798.41;;;10.76;87.30
76086;BME280;64791;0.000;0.000;2023-05-27T01:59:41;93799.84;;;10.77;87.49
76086;BME280;64791;0.000;0.000;2023-05-27T02:02:07;93798.41;;;10.76;87.36
76086;BME280;64791;0.000;0.000;2023-05-27T02:04:32;93812.72;;;10.75;87.44
76086;BME280;64791;0.000;0.000;2023-05-27T02:06:58;93799.47;;;10.73;86.97
76086;BME280;64791;0.000;0.000;2023-05-27T02:09:24;93800.41;;;10.76;87.19
76086;BME280;64791;0.000;0.000;2023-05-27T02:11:51;93801.16;;;10.76;87.49
76086;BME280;64791;0.000;0.000;2023-05-27T02:14:17;93799.84;;;10.77;86.98
76086;BME280;64791;0.000;0.000;2023-05-27T02:16:43;93805.00;;;10.73;87.17
76086;BME280;64791;0.000;0.000;2023-05-27T02:19:08;93805.56;;;10.72;86.96
76086;BME280;64791;0.000;0.000;2023-05-27T02:21:34;93800.59;;;10.70;87.04
76086;BME280;64791;0.000;0.000;2023-05-27T02:24:01;93804.63;;;10.69;87.41
76086;BME280;64791;0.000;0.000;2023-05-27T02:26:27;93806.47;;;10.67;87.42
76086;BME280;64791;0.000;0.000;2023-05-27T02:28:53;93806.25;;;10.65;87.63
76086;BME280;64791;0.000;0.000;2023-05-27T02:31:19;93813.78;;;10.64;87.57
76086;BME280;64791;0.000;0.000;2023-05-27T02:33:44;93809.75;;;10.65;87.68
76086;BME280;64791;0.000;0.000;2023-05-27T02:36:11;93805.19;;;10.68;87.27
76086;BME280;64791;0.000;0.000;2023-05-27T02:38:37;93796.19;;;10.67;87.63
76086;BME280;64791;0.000;0.000;2023-05-27T02:41:02;93800.41;;;10.68;87.61
76086;BME280;64791;0.000;0.000;2023-05-27T02:43:28;93792.47;;;10.65;87.85
76086;BME280;64791;0.000;0.000;2023-05-27T02:45:53;93788.59;;;10.60;87.79
76086;BME280;64791;0.000;0.000;2023-05-27T02:48:19;93787.88;;;10.60;87.71
76086;BME280;64791;0.000;0.000;2023-05-27T02:50:45;93786.59;;;10.61;88.00
76086;BME280;64791;0.000;0.000;2023-05-27T02:53:10;93792.09;;;10.61;88.02
76086;BME280;64791;0.000;0.000;2023-05-27T02:55:36;93793.75;;;10.64;87.84
76086;BME280;64791;0.000;0.000;2023-05-27T02:58:02;93797.97;;;10.65;87.77
76086;BME280;64791;0.000;0.000;2023-05-27T03:00:30;93793.94;;;10.66;87.88
76086;BME280;64791;0.000;0.000;2023-05-27T03:02:56;93794.16;;;10.68;87.89
76086;BME280;64791;0.000;0.000;2023-05-27T03:05:22;93790.84;;;10.69;88.00
76086;BME280;64791;0.000;0.000;2023-05-27T03:07:48;93794.34;;;10.70;88.08
76086;BME280;64791;0.000;0.000;2023-05-27T03:10:14;93801.31;;;10.71;87.52
76086;BME280;64791;0.000;0.000;2023-05-27T03:12:40;93800.03;;;10.72;87.72
76086;BME280;64791;0.000;0.000;2023-05-27T03:15:05;93801.69;;;10.75;87.94
76086;BME280;64791;0.000;0.000;2023-05-27T03:17:32;93803.34;;;10.78;87.74
76086;BME280;64791;0.000;0.000;2023-05-27T03:19:58;93803.72;;;10.82;87.64
76086;BME280;64791;0.000;0.000;2023-05-27T03:22:24;93797.84;;;10.85;88.22
76086;BME280;64791;0.000;0.000;2023-05-27T03:24:49;93795.81;;;10.86;88.15
76086;BME280;64791;0.000;0.000;2023-05-27T03:27:15;93798.03;;;10.87;87.58
76086;BME280;64791;0.000;0.000;2023-05-27T03:29:43;93798.75;;;10.88;87.31
76086;BME280;64791;0.000;0.000;2023-05-27T03:32:09;93794.72;;;10.89;87.78
76086;BME280;64791;0.000;0.000;2023-05-27T03:34:35;93802.44;;;10.90;87.35
76086;BME280;64791;0.000;0.000;2023-05-27T03:37:01;93801.91;;;10.92;87.23
76086;BME280;64791;0.000;0.000;2023-05-27T03:39:43;93806.13;;;10.93;88.08
76086;BME280;64791;0.000;0.000;2023-05-27T03:42:09;93812.56;;;10.95;87.73
76086;BME280;64791;0.000;0.000;2023-05-27T03:44:35;93817.88;;;11.16;87.74
76086;BME280;64791;0.000;0.000;2023-05-27T03:47:04;93815.84;;;11.16;87.21
76086;BME280;64791;0.000;0.000;2023-05-27T03:49:32;93811.09;;;11.02;87.86
76086;BME280;64791;0.000;0.000;2023-05-27T03:51:58;93821.56;;;11.03;89.01
76086;BME280;64791;0.000;0.000;2023-05-27T03:54:23;93821.19;;;11.07;88.31
76086;BME280;64791;0.000;0.000;2023-05-27T03:56:50;93818.97;;;11.05;88.13
76086;BME280;64791;0.000;0.000;2023-05-27T03:59:16;93827.19;;;11.66;88.93
76086;BME280;64791;0.000;0.000;2023-05-27T04:01:43;93817.09;;;12.16;82.51
76086;BME280;64791;0.000;0.000;2023-05-27T04:04:08;93816.94;;;11.98;83.00
76086;BME280;64791;0.000;0.000;2023-05-27T04:06:34;93822.06;;;12.02;83.13
76086;BME280;64791;0.000;0.000;2023-05-27T04:09:00;93826.38;;;11.80;83.54
76086;BME280;64791;0.000;0.000;2023-05-27T04:11:26;93819.97;;;11.70;84.70
76086;BME280;64791;0.000;0.000;2023-05-27T04:13:52;93822.56;;;11.68;85.33
76086;BME280;64791;0.000;0.000;2023-05-27T04:16:18;93813.53;;;11.68;86.47
76086;BME280;64791;0.000;0.000;2023-05-27T04:18:43;93813.22;;;11.56;87.24
76086;BME280;64791;0.000;0.000;2023-05-27T04:21:14;93809.88;;;11.65;87.33
76086;BME280;64791;0.000;0.000;2023-05-27T04:23:41;93808.19;;;11.77;87.43
76086;BME280;64791;0.000;0.000;2023-05-27T04:26:07;93811.41;;;11.98;86.82
76086;BME280;64791;0.000;0.000;2023-05-27T04:28:37;93822.38;;;12.61;85.35
76086;BME280;64791;0.000;0.000;2023-05-27T04:31:04;93817.91;;;12.90;83.70
76086;BME280;64791;0.000;0.000;2023-05-27T04:33:39;93817.34;;;12.92;83.38
76086;BME280;64791;0.000;0.000;2023-05-27T04:36:06;93820.59;;;13.30;81.97
76086;BME280;64791;0.000;0.000;2023-05-27T04:38:40;93819.75;;;13.37;82.03
76086;BME280;64791;0.000;0.000;2023-05-27T04:41:06;93826.66;;;13.28;82.15
76086;BME280;64791;0.000;0.000;2023-05-27T04:44:01;93820.09;;;13.41;82.27
76086;BME280;64791;0.000;0.000;2023-05-27T04:46:31;93823.22;;;13.62;80.04
76086;BME280;64791;0.000;0.000;2023-05-27T04:48:57;93823.28;;;13.37;81.54
76086;BME280;64791;0.000;0.000;2023-05-27T04:51:22;93819.13;;;14.14;80.58
76086;BME280;64791;0.000;0.000;2023-05-27T04:53:49;93813.28;;;15.72;74.46
76086;BME280;64791;0.000;0.000;2023-05-27T04:56:16;93812.69;;;15.74;71.60
76086;BME280;64791;0.000;0.000;2023-05-27T04:58:43;93820.28;;;16.31;72.16
76086;BME280;64791;0.000;0.000;2023-05-27T05:01:12;93817.06;;;16.34;72.23
76086;BME280;64791;0.000;0.000;2023-05-27T05:03:47;93820.50;;;16.83;71.86
76086;BME280;64791;0.000;0.000;2023-05-27T05:06:39;93819.59;;;18.24;66.55
76086;BME280;64791;0.000;0.000;2023-05-27T05:09:05;93832.53;;;17.87;67.36
76086;BME280;64791;0.000;0.000;2023-05-27T05:11:32;93817.31;;;17.17;67.69
76086;BME280;64791;0.000;0.000;2023-05-27T05:13:58;93821.91;;;17.03;68.85
76086;BME280;64791;0.000;0.000;2023-05-27T05:16:24;93822.78;;;16.55;70.41
76086;BME280;64791;0.000;0.000;2023-05-27T05:18:50;93823.84;;;16.22;70.59
76086;BME280;64791;0.000;0.000;2023-05-27T05:21:16;93828.50;;;16.10;70.86
76086;BME280;64791;0.000;0.000;2023-05-27T05:23:43;93834.50;;;15.97;71.50
76086;BME280;64791;0.000;0.000;2023-05-27T05:26:08;93831.72;;;15.87;72.70
76086;BME280;64791;0.000;0.000;2023-05-27T05:28:38;93824.25;;;15.80;73.86
76086;BME280;64791;0.000;0.000;2023-05-27T05:31:06;93825.13;;;16.02;73.44
76086;BME280;64791;0.000;0.000;2023-05-27T05:33:31;93838.31;;;16.20;72.90
76086;BME280;64791;0.000;0.000;2023-05-27T05:35:57;93840.03;;;15.58;74.02
76086;BME280;64791;0.000;0.000;2023-05-27T05:38:30;93838.59;;;15.21;73.00
76086;BME280;64791;0.000;0.000;2023-05-27T05:40:56;93849.94;;;15.52;74.99
76086;BME280;64791;0.000;0.000;2023-05-27T05:43:23;93856.56;;;15.56;75.88
76086;BME280;64791;0.000;0.000;2023-05-27T05:45:49;93850.88;;;15.73;74.92
76086;BME280;64791;0.000;0.000;2023-05-27T05:48:17;93849.91;;;16.07;73.97
76086;BME280;64791;0.000;0.000;2023-05-27T05:50:43;93850.00;;;15.90;73.63
76086;BME280;64791;0.000;0.000;2023-05-27T05:53:10;93861.16;;;16.00;72.82
76086;BME280;64791;0.000;0.000;2023-05-27T05:55:36;93857.31;;;15.76;72.39
76086;BME280;64791;0.000;0.000;2023-05-27T05:58:02;93856.78;;;16.25;71.83
76086;BME280;64791;0.000;0.000;2023-05-27T06:00:28;93864.41;;;16.15;71.90
76086;BME280;64791;0.000;0.000;2023-05-27T06:03:09;93872.59;;;16.13;71.80
76086;BME280;64791;0.000;0.000;2023-05-27T06:05:45;93879.66;;;14.86;73.21
76086;BME280;64791;0.000;0.000;2023-05-27T06:08:11;93872.09;;;14.96;74.24
76086;BME280;64791;0.000;0.000;2023-05-27T06:10:39;93872.19;;;15.16;74.93
76086;BME280;64791;0.000;0.000;2023-05-27T06:13:05;93872.88;;;15.43;74.68
76086;BME280;64791;0.000;0.000;2023-05-27T06:15:31;93871.22;;;15.76;73.33
76086;BME280;64791;0.000;0.000;2023-05-27T06:17:58;93874.88;;;15.59;73.05
76086;BME280;64791;0.000;0.000;2023-05-27T06:20:23;93873.88;;;15.74;72.73
76086;BME280;64791;0.000;0.000;2023-05-27T06:22:49;93883.25;;;15.88;71.83
76086;BME280;64791;0.000;0.000;2023-05-27T06:25:29;93880.50;;;15.98;71.75
76086;BME280;64791;0.000;0.000;2023-05-27T06:27:58;93875.97;;;16.02;71.76
76086;BME280;64791;0.000;0.000;2023-05-27T06:30:24;93883.13;;;15.96;72.19
76086;BME280;64791;0.000;0.000;2023-05-27T06:32:52;93881.78;;;15.87;71.65
76086;BME280;64791;0.000;0.000;2023-05-27T06:35:19;93885.47;;;15.90;72.36
76086;BME280;64791;0.000;0.000;2023-05-27T06:37:45;93883.69;;;15.84;71.58
76086;BME280;64791;0.000;0.000;2023-05-27T06:40:11;93889.13;;;16.02;71.76
76086;BME280;64791;0.000;0.000;2023-05-27T06:42:37;93894.47;;;15.61;72.59
76086;BME280;64791;0.000;0.000;2023-05-27T06:45:38;93884.56;;;15.97;71.96
76086;BME280;64791;0.000;0.000;2023-05-27T06:48:23;93896.22;;;15.57;73.44
76086;BME280;64791;0.000;0.000;2023-05-27T06:50:49;93890.19;;;15.15;73.80
76086;BME280;64791;0.000;0.000;2023-05-27T06:53:14;93895.63;;;15.22;74.54
76086;BME280;64791;0.000;0.000;2023-05-27T06:55:50;93893.03;;;15.79;73.93
76086;BME280;64791;0.000;0.000;2023-05-27T06:58:54;93899.53;;;16.20;73.51
76086;BME280;64791;0.000;0.000;2023-05-27T07:01:20;93889.28;;;16.23;73.15
76086;BME280;64791;0.000;0.000;2023-05-27T07:03:52;93892.25;;;16.53;73.02
76086;BME280;64791;0.000;0.000;2023-05-27T07:06:25;93892.25;;;16.53;72.82
76086;BME280;64791;0.000;0.000;2023-05-27T07:08:53;93892.38;;;16.75;71.76
76086;BME280;64791;0.000;0.000;2023-05-27T07:11:26;93900.66;;;17.13;71.24
76086;BME280;64791;0.000;0.000;2023-05-27T07:13:57;93897.56;;;17.09;71.78
76086;BME280;64791;0.000;0.000;2023-05-27T07:16:25;93901.84;;;17.10;69.26
76086;BME280;64791;0.000;0.000;2023-05-27T07:18:51;93897.38;;;16.47;69.86
76086;BME280;64791;0.000;0.000;2023-05-27T07:21:18;93892.41;;;16.65;70.16
76086;BME280;64791;0.000;0.000;2023-05-27T07:23:44;93897.81;;;16.73;69.77
76086;BME280;64791;0.000;0.000;2023-05-27T07:26:29;93895.19;;;17.24;70.02
76086;BME280;64791;0.000;0.000;2023-05-27T07:28:56;93892.06;;;17.39;69.23
76086;BME280;64791;0.000;0.000;2023-05-27T07:31:50;93900.69;;;17.53;69.62
76086;BME280;64791;0.000;0.000;2023-05-27T07:34:18;93896.41;;;17.62;70.21
76086;BME280;64791;0.000;0.000;2023-05-27T07:36:47;93903.59;;;17.86;68.78
76086;BME280;64791;0.000;0.000;2023-05-27T07:39:12;93914.34;;;18.10;67.15
76086;BME280;64791;0.000;0.000;2023-05-27T07:41:39;93906.56;;;18.30;66.27
76086;BME280;64791;0.000;0.000;2023-05-27T07:44:04;93911.03;;;18.24;67.29
76086;BME280;64791;0.000;0.000;2023-05-27T07:46:30;93910.78;;;18.41;66.52
76086;BME280;64791;0.000;0.000;2023-05-27T07:48:56;93904.44;;;18.40;65.86
76086;BME280;64791;0.000;0.000;2023-05-27T07:51:22;93910.50;;;18.37;66.54
76086;BME280;64791;0.000;0.000;2023-05-27T07:53:49;93913.34;;;18.27;66.75
76086;BME280;64791;0.000;0.000;2023-05-27T07:56:16;93911.53;;;18.32;66.13
76086;BME280;64791;0.000;0.000;2023-05-27T07:58:41;93913.13;;;18.13;66.02
76086;BME280;64791;0.000;0.000;2023-05-27T08:01:10;93916.59;;;18.02;67.05
76086;BME280;64791;0.000;0.000;2023-05-27T08:03:37;93919.56;;;18.16;66.48
76086;BME280;64791;0.000;0.000;2023-05-27T08:06:13;93921.19;;;18.19;66.11
76086;BME280;64791;0.000;0.000;2023-05-27T08:08:50;93919.59;;;18.37;65.28
76086;BME280;64791;0.000;0.000;2023-05-27T08:11:33;93921.06;;;18.38;65.43
76086;BME280;64791;0.000;0.000;2023-05-27T08:14:22;93928.19;;;18.51;64.70
76086;BME280;64791;0.000;0.000;2023-05-27T08:17:19;93922.94;;;18.45;64.82
76086;BME280;64791;0.000;0.000;2023-05-27T08:19:57;93918.19;;;18.27;65.53
76086;BME280;64791;0.000;0.000;2023-05-27T08:22:45;93922.25;;;18.35;65.63
76086;BME280;64791;0.000;0.000;2023-05-27T08:25:35;93922.75;;;18.01;64.02
76086;BME280;64791;0.000;0.000;2023-05-27T08:28:19;93920.31;;;17.65;66.54
76086;BME280;64791;0.000;0.000;2023-05-27T08:31:00;93919.00;;;17.56;68.39
76086;BME280;64791;0.000;0.000;2023-05-27T08:33:37;93912.94;;;17.29;67.39
76086;BME280;64791;0.000;0.000;2023-05-27T08:36:04;93927.63;;;17.20;67.84
76086;BME280;64791;0.000;0.000;2023-05-27T08:38:30;93919.75;;;17.57;67.58
76086;BME280;64791;0.000;0.000;2023-05-27T08:41:11;93917.38;;;17.93;66.72
76086;BME280;64791;0.000;0.000;2023-05-27T08:43:37;93922.50;;;18.18;65.95
76086;BME280;64791;0.000;0.000;2023-05-27T08:46:03;93920.56;;;18.63;65.24
76086;BME280;64791;0.000;0.000;2023-05-27T08:48:30;93914.13;;;18.93;64.91
76086;BME280;64791;0.000;0.000;2023-05-27T08:50:55;93912.88;;;19.17;64.18
76086;BME280;64791;0.000;0.000;2023-05-27T08:53:22;93912.84;;;19.50;64.01
76086;BME280;64791;0.000;0.000;2023-05-27T08:55:50;93906.41;;;20.05;62.11
76086;BME280;64791;0.000;0.000;2023-05-27T08:58:17;93905.59;;;20.51;60.18
76086;BME280;64791;0.000;0.000;2023-05-27T09:00:46;93901.72;;;21.06;57.10
76086;BME280;64791;0.000;0.000;2023-05-27T09:03:15;93899.69;;;21.21;58.65
76086;BME280;64791;0.000;0.000;2023-05-27T09:05:42;93893.66;;;21.51;54.18
76086;BME280;64791;0.000;0.000;2023-05-27T09:08:07;93898.91;;;22.25;56.64
76086;BME280;64791;0.000;0.000;2023-05-27T09:10:36;93900.59;;;22.86;56.17
76086;BME280;64791;0.000;0.000;2023-05-27T09:13:02;93891.47;;;23.15;52.68
76086;BME280;64791;0.000;0.000;2023-05-27T09:15:29;93893.69;;;23.03;51.08
76086;BME280;64791;0.000;0.000;2023-05-27T09:17:56;93891.69;;;22.62;51.69
76086;BME280;64791;0.000;0.000;2023-05-27T09:20:25;93893.59;;;22.17;53.31
76086;BME280;64791;0.000;0.000;2023-05-27T09:22:56;93890.63;;;22.00;49.89
76086;BME280;64791;0.000;0.000;2023-05-27T09:25:23;93895.19;;;21.93;52.87
76086;BME280;64791;0.000;0.000;2023-05-27T09:27:49;93891.09;;;21.69;52.00
76086;BME280;64791;0.000;0.000;2023-05-27T09:30:15;93904.53;;;21.84;53.83
76086;BME280;64791;0.000;0.000;2023-05-27T09:32:41;93892.28;;;21.91;54.13
76086;BME280;64791;0.000;0.000;2023-05-27T09:35:07;93900.31;;;21.58;53.25
76086;BME280;64791;0.000;0.000;2023-05-27T09:37:36;93894.09;;;21.59;54.56
76086;BME280;64791;0.000;0.000;2023-05-27T09:40:05;93896.22;;;21.08;52.58
76086;BME280;64791;0.000;0.000;2023-05-27T09:42:45;93893.84;;;21.17;54.21
76086;BME280;64791;0.000;0.000;2023-05-27T09:45:14;93886.13;;;21.42;52.04
76086;BME280;64791;0.000;0.000;2023-05-27T09:47:41;93889.25;;;21.87;51.71
76086;BME280;64791;0.000;0.000;2023-05-27T09:50:08;93881.03;;;21.77;50.19
76086;BME280;64791;0.000;0.000;2023-05-27T09:52:38;93884.66;;;22.21;52.42
76086;BME280;64791;0.000;0.000;2023-05-27T09:55:07;93888.56;;;22.70;52.26
76086;BME280;64791;0.000;0.000;2023-05-27T09:57:34;93883.28;;;23.21;49.98
76086;BME280;64791;0.000;0.000;2023-05-27T10:00:02;93886.16;;;23.52;50.90
76086;BME280;64791;0.000;0.000;2023-05-27T10:02:38;93873.84;;;23.75;47.29
76086;BME280;64791;0.000;0.000;2023-05-27T10:05:05;93885.06;;;24.22;48.44
76086;BME280;64791;0.000;0.000;2023-05-27T10:07:37;93878.47;;;24.48;47.75
76086;BME280;64791;0.000;0.000;2023-05-27T10:10:10;93880.13;;;24.71;48.24
76086;BME280;64791;0.000;0.000;2023-05-27T10:12:38;93876.75;;;24.92;48.60
76086;BME280;64791;0.000;0.000;2023-05-27T10:15:04;93877.81;;;24.83;46.38
76086;BME280;64791;0.000;0.000;2023-05-27T10:17:49;93869.97;;;24.64;45.92
76086;BME280;64791;0.000;0.000;2023-05-27T10:20:28;93881.53;;;24.21;48.15
76086;BME280;64791;0.000;0.000;2023-05-27T10:22:55;93881.47;;;24.03;46.51
76086;BME280;64791;0.000;0.000;2023-05-27T10:25:22;93869.94;;;23.82;46.27
76086;BME280;64791;0.000;0.000;2023-05-27T10:27:47;93877.94;;;23.11;48.08
76086;BME280;64791;0.000;0.000;2023-05-27T10:30:13;93871.13;;;22.17;48.06
76086;BME280;64791;0.000;0.000;2023-05-27T10:32:49;93873.22;;;22.44;49.27
76086;BME280;64791;0.000;0.000;2023-05-27T10:35:16;93875.38;;;22.45;49.85
76086;BME280;64791;0.000;0.000;2023-05-27T10:37:41;93872.91;;;22.81;50.06
76086;BME280;64791;0.000;0.000;2023-05-27T10:40:07;93870.41;;;23.16;48.76
76086;BME280;64791;0.000;0.000;2023-05-27T10:42:33;93865.16;;;23.39;47.27
76086;BME280;64791;0.000;0.000;2023-05-27T10:45:06;93861.72;;;23.72;47.57
76086;BME280;64791;0.000;0.000;2023-05-27T10:47:35;93864.81;;;23.94;49.03
76086;BME280;64791;0.000;0.000;2023-05-27T10:50:13;93854.06;;;22.99;47.17
76086;BME280;64791;0.000;0.000;2023-05-27T10:52:40;93862.16;;;23.20;48.98
76086;BME280;64791;0.000;0.000;2023-05-27T10:55:06;93869.88;;;23.19;47.17
76086;BME280;64791;0.000;0.000;2023-05-27T10:57:32;93866.53;;;23.38;49.53
76086;BME280;64791;0.000;0.000;2023-05-27T11:00:00;93855.19;;;23.52;48.28
76086;BME280;64791;0.000;0.000;2023-05-27T11:02:28;93856.66;;;23.84;46.94
76086;BME280;64791;0.000;0.000;2023-05-27T11:04:56;93848.63;;;24.10;47.42
76086;BME280;64791;0.000;0.000;2023-05-27T11:07:22;93844.72;;;24.50;46.62
76086;BME280;64791;0.000;0.000;2023-05-27T11:09:53;93840.00;;;24.39;44.81
76086;BME280;64791;0.000;0.000;2023-05-27T11:12:23;93829.97;;;24.69;43.81
76086;BME280;64791;0.000;0.000;2023-05-27T11:14:52;93830.53;;;25.74;42.75
76086;BME280;64791;0.000;0.000;2023-05-27T11:17:18;93832.88;;;25.07;43.57
76086;BME280;64791;0.000;0.000;2023-05-27T11:19:45;93823.34;;;24.45;43.17
76086;BME280;64791;0.000;0.000;2023-05-27T11:22:11;93827.31;;;24.73;43.42
76086;BME280;64791;0.000;0.000;2023-05-27T11:24:37;93817.47;;;24.57;42.56
76086;BME280;64791;0.000;0.000;2023-05-27T11:27:13;93818.94;;;24.75;43.25
76086;BME280;64791;0.000;0.000;2023-05-27T11:29:40;93819.50;;;24.90;42.54
76086;BME280;64791;0.000;0.000;2023-05-27T11:32:15;93803.53;;;24.28;41.46
76086;BME280;64791;0.000;0.000;2023-05-27T11:34:41;93819.88;;;23.80;43.59
76086;BME280;64791;0.000;0.000;2023-05-27T11:37:08;93819.81;;;23.96;42.02
76086;BME280;64791;0.000;0.000;2023-05-27T11:39:34;93818.75;;;23.87;43.76
76086;BME280;64791;0.000;0.000;2023-05-27T11:42:00;93810.19;;;24.01;42.94
76086;BME280;64791;0.000;0.000;2023-05-27T11:44:30;93806.97;;;23.75;43.01
76086;BME280;64791;0.000;0.000;2023-05-27T11:46:59;93804.50;;;23.83;41.53
76086;BME280;64791;0.000;0.000;2023-05-27T11:49:27;93806.34;;;24.10;44.21
76086;BME280;64791;0.000;0.000;2023-05-27T11:51:56;93807.25;;;24.32;43.70
76086;BME280;64791;0.000;0.000;2023-05-27T11:54:22;93793.94;;;23.99;42.12
76086;BME280;64791;0.000;0.000;2023-05-27T11:56:49;93813.56;;;23.66;44.35
76086;BME280;64791;0.000;0.000;2023-05-27T11:59:15;93803.84;;;23.85;43.38
76086;BME280;64791;0.000;0.000;2023-05-27T12:01:41;93795.50;;;23.71;43.41
76086;BME280;64791;0.000;0.000;2023-05-27T12:04:07;93790.81;;;23.93;43.17
76086;BME280;64791;0.000;0.000;2023-05-27T12:06:33;93783.66;;;24.74;43.69
76086;BME280;64791;0.000;0.000;2023-05-27T12:08:58;93777.13;;;25.25;42.12
76086;BME280;64791;0.000;0.000;2023-05-27T12:11:24;93772.91;;;25.43;41.33
76086;BME280;64791;0.000;0.000;2023-05-27T12:13:50;93773.69;;;25.46;41.08
76086;BME280;64791;0.000;0.000;2023-05-27T12:16:16;93766.34;;;25.02;41.07
76086;BME280;64791;0.000;0.000;2023-05-27T12:18:42;93774.59;;;24.43;40.46
76086;BME280;64791;0.000;0.000;2023-05-27T12:21:07;93763.31;;;24.78;41.14
76086;BME280;64791;0.000;0.000;2023-05-27T12:23:33;93757.59;;;25.11;41.82
76086;BME280;64791;0.000;0.000;2023-05-27T12:25:59;93760.94;;;25.08;44.66
76086;BME280;64791;0.000;0.000;2023-05-27T12:28:25;93757.59;;;25.31;40.81
76086;BME280;64791;0.000;0.000;2023-05-27T12:30:51;93753.56;;;24.81;42.98
76086;BME280;64791;0.000;0.000;2023-05-27T12:33:17;93756.63;;;24.52;41.82
76086;BME280;64791;0.000;0.000;2023-05-27T12:35:45;93748.34;;;24.05;42.91
76086;BME280;64791;0.000;0.000;2023-05-27T12:38:11;93746.78;;;23.69;42.45
76086;BME280;64791;0.000;0.000;2023-05-27T12:40:36;93760.81;;;23.35;45.89
76086;BME280;64791;0.000;0.000;2023-05-27T12:43:02;93755.47;;;23.26;45.49
76086;BME280;64791;0.000;0.000;2023-05-27T12:45:31;93751.19;;;23.25;45.00
76086;BME280;64791;0.000;0.000;2023-05-27T12:47:58;93747.72;;;23.42;46.65
76086;BME280;64791;0.000;0.000;2023-05-27T12:50:24;93738.00;;;22.98;43.37
76086;BME280;64791;0.000;0.000;2023-05-27T12:52:51;93738.13;;;22.55;45.17
76086;BME280;64791;0.000;0.000;2023-05-27T12:55:19;93738.88;;;22.72;46.88
76086;BME280;64791;0.000;0.000;2023-05-27T12:57:47;93737.38;;;23.31;45.80
76086;BME280;64791;0.000;0.000;2023-05-27T13:00:13;93729.06;;;23.82;44.80
76086;BME280;64791;0.000;0.000;2023-05-27T13:02:39;93722.75;;;23.99;43.51
76086;BME280;64791;0.000;0.000;2023-05-27T13:05:05;93716.81;;;23.75;42.34
76086;BME280;64791;0.000;0.000;2023-05-27T13:07:32;93709.09;;;23.60;44.53
76086;BME280;64791;0.000;0.000;2023-05-27T13:10:02;93711.81;;;23.74;43.89
76086;BME280;64791;0.000;0.000;2023-05-27T13:12:28;93711.28;;;23.77;46.40
76086;BME280;64791;0.000;0.000;2023-05-27T13:14:54;93707.53;;;24.06;46.44
76086;BME280;64791;0.000;0.000;2023-05-27T13:17:19;93699.34;;;24.30;43.96
76086;BME280;64791;0.000;0.000;2023-05-27T13:19:45;93695.72;;;24.27;44.83
76086;BME280;64791;0.000;0.000;2023-05-27T13:22:11;93695.16;;;24.48;43.63